Redwood City, CA (94065)

18:20 PST le 02 décembre 2016 (GMT -0800)
Belmont - Island Park | | Change Station

Alt. 25 ft 37.53 °N, 122.27 °W | Updated 29 seconds ago

Partly Cloudy
Partiellement nuageux
54.1 ° F
Paraît 54.1 ° F
N
0.0
Vent Variable Vent de NO
Gusts 0.0 mph

Aujourd'hui
Haut(e) -- | Bas -- ° F
--% Risque de précip.
Hier
Haut(e) -- | Bas -- ° F
Precip. -- pouce
Pression 30.21 pouce
Visibilité 10.0 Miles terrestres
Nuages Peu 20000 ft
Point de rosée 41 ° F
Humidité 61%
Précipitations 0.00 pouce
Profondeur de la couche neigeuse Non disponible.
7:06 AM 4:50 PM
Lune montante, 12% visible
METAR KSQL 030152Z 29003KT 10SM FEW200 14/03 A3021
Pression 30.21 pouce
Visibilité 10.0 Miles terrestres
Nuages Peu 20000 ft
Point de rosée 41 ° F
Humidité 61%
Précipitations 0.00 pouce
Profondeur de la couche neigeuse Non disponible.
7:06 AM 4:50 PM
Lune montante, 12% visible
METAR KSQL 030152Z 29003KT 10SM FEW200 14/03 A3021

10-Day Weather Forecast

Almanac

Astronomie

Dec. 02, 2016 Lever Coucher
Temps réel
Crépuscule civil
Crépuscule nautique
Crépuscule astronomique
Lune
Durée de lumière visible
Longueur du jour
Tomorrow will be .
, % of the Moon is Illuminated

Extrêmes aujourd'hui

State Highs State Lows

Community

WunderPhotos

Upload Photos

1,955,396 Photos téléchargées !

WunderBlog® & News

Nearby

Qualité de l'air

  Qualité de l'air Indice de la qualité de l'air Polluant
Not available.

Épaisseur de neige

Station Depth Altitude

Activité sismique

Ville Distance Mag. Time & Date
Minimum magnitude displayed is 2.5.

Températures des eaux côtières

Lieu Température

Stations

Stations météo à proximité

Emplacement de la station Température Refroidissement éolien Point de rosée Humidité Vent Precip. Alt. Mise à jour Type
                   

Watches & Warnings

There are currently no watches in effect.